sensor_id;sensor_type;location;lat;lon;timestamp;pressure;altitude;pressure_sealevel;temperature;humidity
11519;BME280;5816;48.228;14.116;2023-07-08T17:31:58;98140.94;;;31.13;38.47
11519;BME280;5816;48.228;14.116;2023-07-08T17:37:00;98143.28;;;31.68;38.13
11519;BME280;5816;48.228;14.116;2023-07-08T17:42:02;98141.28;;;29.96;42.14
11519;BME280;5816;48.228;14.116;2023-07-08T17:47:04;98132.03;;;29.13;44.46
11519;BME280;5816;48.228;14.116;2023-07-08T17:52:09;98149.09;;;28.93;46.69
11519;BME280;5816;48.228;14.116;2023-07-08T17:57:11;98153.47;;;28.32;48.29
11519;BME280;5816;48.228;14.116;2023-07-08T18:02:16;98153.19;;;28.34;49.75
11519;BME280;5816;48.228;14.116;2023-07-08T18:07:18;98158.31;;;27.67;51.69
11519;BME280;5816;48.228;14.116;2023-07-08T18:12:20;98166.59;;;27.20;55.66
11519;BME280;5816;48.228;14.116;2023-07-08T18:17:21;98179.88;;;27.58;55.86
11519;BME280;5816;48.228;14.116;2023-07-08T18:22:23;98179.63;;;27.59;56.43
11519;BME280;5816;48.228;14.116;2023-07-08T18:27:25;98174.47;;;27.28;57.47
11519;BME280;5816;48.228;14.116;2023-07-08T18:32:27;98186.91;;;26.47;59.17
11519;BME280;5816;48.228;14.116;2023-07-08T18:37:29;98185.00;;;26.47;58.54
11519;BME280;5816;48.228;14.116;2023-07-08T18:42:30;98191.09;;;26.13;59.31
11519;BME280;5816;48.228;14.116;2023-07-08T18:47:32;98176.19;;;26.09;59.99
11519;BME280;5816;48.228;14.116;2023-07-08T18:52:34;98188.09;;;25.59;61.83
11519;BME280;5816;48.228;14.116;2023-07-08T18:57:36;98185.56;;;25.14;62.83
11519;BME280;5816;48.228;14.116;2023-07-08T19:02:57;98203.97;;;25.32;61.86
11519;BME280;5816;48.228;14.116;2023-07-08T19:07:59;98211.66;;;25.17;61.14
11519;BME280;5816;48.228;14.116;2023-07-08T19:13:01;98228.25;;;24.97;61.64
11519;BME280;5816;48.228;14.116;2023-07-08T19:18:03;98229.78;;;24.55;62.76
11519;BME280;5816;48.228;14.116;2023-07-08T19:23:12;98239.44;;;24.57;63.32
11519;BME280;5816;48.228;14.116;2023-07-08T19:28:14;98236.53;;;24.46;62.61
11519;BME280;5816;48.228;14.116;2023-07-08T19:33:16;98242.91;;;24.33;61.34
11519;BME280;5816;48.228;14.116;2023-07-08T19:38:18;98254.50;;;24.28;61.68
11519;BME280;5816;48.228;14.116;2023-07-08T19:43:23;98260.66;;;24.11;63.32
11519;BME280;5816;48.228;14.116;2023-07-08T19:48:25;98259.88;;;23.70;64.06
11519;BME280;5816;48.228;14.116;2023-07-08T19:53:28;98272.28;;;23.93;63.48
11519;BME280;5816;48.228;14.116;2023-07-08T19:58:29;98270.41;;;23.73;64.38
11519;BME280;5816;48.228;14.116;2023-07-08T20:03:32;98269.56;;;23.40;65.77
11519;BME280;5816;48.228;14.116;2023-07-08T20:08:35;98277.34;;;23.23;66.66
11519;BME280;5816;48.228;14.116;2023-07-08T20:13:37;98279.03;;;23.50;65.87
11519;BME280;5816;48.228;14.116;2023-07-08T20:18:39;98281.34;;;23.47;65.51
11519;BME280;5816;48.228;14.116;2023-07-08T20:23:44;98275.88;;;23.40;66.56
11519;BME280;5816;48.228;14.116;2023-07-08T20:28:45;98282.34;;;23.06;68.12
11519;BME280;5816;48.228;14.116;2023-07-08T20:33:48;98291.38;;;23.00;67.55
11519;BME280;5816;48.228;14.116;2023-07-08T20:38:50;98292.19;;;22.94;68.27
11519;BME280;5816;48.228;14.116;2023-07-08T20:43:52;98279.75;;;22.85;68.54
11519;BME280;5816;48.228;14.116;2023-07-08T20:48:56;98295.50;;;22.83;69.51
